GBB289Y FAOR-FAPE
Flight info
| Callsign | GBB289Y |
|---|---|
| Flight time | 1h 15m |
| Altitude | 32000 |
| Route | OVALA UZ18 NEVEN UQ8 ALKAT DCT PEV |
| Aircraft | A320/M-SDE3FGHIRWY/LB1 |
Departure
| Time | 2026-05-04 17:08 |
|---|---|
| Airport | O.R. Tambo International Airport (FAOR) |
Arrival
| Time | 2026-05-04 18:23 |
|---|---|
| Airport | Chief Dawid Stuurman International Airport (FAPE) |
| Time | Latitude | Longitude | Altitude | Speed | Heading |
|---|---|---|---|---|---|
| 2026-05-04 16:31 | -26.13678 | 28.23065 | 5547 ft | 0 kts | 6° |
| 2026-05-04 17:00 | -26.13733 | 28.23056 | 5548 ft | 4 kts | 51° |
| 2026-05-04 17:00 | -26.13737 | 28.23018 | 5547 ft | 0 kts | 96° |
| 2026-05-04 17:04 | -26.13737 | 28.23020 | 5547 ft | 1 kts | 96° |
| 2026-05-04 17:04 | -26.13755 | 28.23216 | 5551 ft | 22 kts | 96° |
| 2026-05-04 17:05 | -26.13938 | 28.23289 | 5548 ft | 16 kts | 196° |
| 2026-05-04 17:05 | -26.14170 | 28.23217 | 5553 ft | 17 kts | 196° |
| 2026-05-04 17:06 | -26.14321 | 28.23219 | 5563 ft | 9 kts | 166° |
| 2026-05-04 17:06 | -26.14400 | 28.23241 | 5564 ft | 15 kts | 166° |
| 2026-05-04 17:07 | -26.14477 | 28.23403 | 5563 ft | 18 kts | 76° |
| 2026-05-04 17:07 | -26.14445 | 28.23493 | 5560 ft | 18 kts | 37° |
| 2026-05-04 17:07 | -26.14137 | 28.23591 | 5562 ft | 71 kts | 15° |
| 2026-05-04 17:07 | -26.13457 | 28.23802 | 5550 ft | 130 kts | 15° |
| 2026-05-04 17:08 | -26.12425 | 28.24120 | 5543 ft | 176 kts | 17° |
| 2026-05-04 17:08 | -26.09973 | 28.24953 | 6729 ft | 185 kts | 13° |
| 2026-05-04 17:08 | -26.08738 | 28.25379 | 7326 ft | 191 kts | 13° |
| 2026-05-04 17:09 | -26.07416 | 28.25830 | 7464 ft | 212 kts | 13° |
| 2026-05-04 17:09 | -26.05906 | 28.26345 | 7604 ft | 237 kts | 14° |
| 2026-05-04 17:09 | -26.04271 | 28.26905 | 7856 ft | 261 kts | 14° |
| 2026-05-04 17:10 | -26.00620 | 28.28194 | 8927 ft | 284 kts | 19° |
| 2026-05-04 17:10 | -25.97682 | 28.33831 | 10742 ft | 326 kts | 97° |
| 2026-05-04 17:11 | -25.98537 | 28.36239 | 10887 ft | 349 kts | 127° |
| 2026-05-04 17:11 | -26.00392 | 28.38034 | 11142 ft | 361 kts | 155° |
| 2026-05-04 17:11 | -26.05310 | 28.38485 | 12205 ft | 362 kts | 194° |
| 2026-05-04 17:12 | -26.07768 | 28.37833 | 12823 ft | 363 kts | 199° |
| 2026-05-04 17:12 | -26.12671 | 28.36212 | 14010 ft | 372 kts | 199° |
| 2026-05-04 17:13 | -26.20364 | 28.34176 | 15596 ft | 385 kts | 195° |
| 2026-05-04 17:14 | -26.28360 | 28.32426 | 17129 ft | 396 kts | 195° |
| 2026-05-04 17:14 | -26.31074 | 28.31828 | 17647 ft | 399 kts | 196° |
| 2026-05-04 17:14 | -26.36561 | 28.30594 | 18656 ft | 406 kts | 196° |
| 2026-05-04 17:15 | -26.39341 | 28.29961 | 19119 ft | 409 kts | 196° |
| 2026-05-04 17:15 | -26.44961 | 28.28683 | 20083 ft | 415 kts | 197° |
| 2026-05-04 17:16 | -26.50655 | 28.27379 | 21064 ft | 421 kts | 197° |
| 2026-05-04 17:16 | -26.59347 | 28.25393 | 22461 ft | 429 kts | 197° |
| 2026-05-04 17:17 | -26.62284 | 28.24722 | 22908 ft | 432 kts | 197° |
| 2026-05-04 17:17 | -26.71180 | 28.22693 | 24129 ft | 440 kts | 197° |
| 2026-05-04 17:18 | -26.74230 | 28.21995 | 24495 ft | 442 kts | 197° |
| 2026-05-04 17:18 | -26.80262 | 28.20616 | 25191 ft | 447 kts | 197° |
| 2026-05-04 17:19 | -26.86383 | 28.19212 | 25866 ft | 451 kts | 198° |
| 2026-05-04 17:19 | -26.92569 | 28.17797 | 26532 ft | 455 kts | 198° |
| 2026-05-04 17:20 | -26.98806 | 28.16366 | 27178 ft | 459 kts | 198° |
| 2026-05-04 17:20 | -27.05096 | 28.14908 | 27814 ft | 463 kts | 198° |
| 2026-05-04 17:20 | -27.08254 | 28.14180 | 28133 ft | 465 kts | 198° |
| 2026-05-04 17:21 | -27.14627 | 28.12718 | 28767 ft | 469 kts | 198° |
| 2026-05-04 17:21 | -27.21053 | 28.11231 | 29390 ft | 473 kts | 199° |
| 2026-05-04 17:22 | -27.24287 | 28.10479 | 29709 ft | 474 kts | 199° |
| 2026-05-04 17:22 | -27.27513 | 28.09731 | 30150 ft | 473 kts | 199° |
| 2026-05-04 17:23 | -27.37110 | 28.07525 | 31339 ft | 469 kts | 199° |
| 2026-05-04 17:23 | -27.40298 | 28.06791 | 31754 ft | 467 kts | 200° |
| 2026-05-04 17:23 | -27.46650 | 28.05318 | 32188 ft | 465 kts | 200° |
| 2026-05-04 17:24 | -27.49764 | 28.04429 | 32209 ft | 457 kts | 206° |
| 2026-05-04 17:25 | -27.61882 | 28.00138 | 32201 ft | 456 kts | 206° |
| 2026-05-04 17:26 | -27.74031 | 27.95847 | 32208 ft | 458 kts | 206° |
| 2026-05-04 17:27 | -27.89249 | 27.90453 | 32203 ft | 458 kts | 206° |
| 2026-05-04 17:28 | -28.01397 | 27.86131 | 32210 ft | 459 kts | 206° |
| 2026-05-04 17:29 | -28.19627 | 27.79393 | 32207 ft | 460 kts | 207° |
| 2026-05-04 17:31 | -28.34843 | 27.73766 | 32211 ft | 460 kts | 207° |
| 2026-05-04 17:32 | -28.50076 | 27.68113 | 32206 ft | 460 kts | 207° |
| 2026-05-04 17:33 | -28.62246 | 27.63581 | 32214 ft | 460 kts | 207° |
| 2026-05-04 17:34 | -28.74428 | 27.59044 | 32210 ft | 461 kts | 207° |
| 2026-05-04 17:35 | -28.89631 | 27.53356 | 32210 ft | 461 kts | 207° |
| 2026-05-04 17:36 | -28.95720 | 27.51084 | 32203 ft | 461 kts | 207° |
| 2026-05-04 17:36 | -29.01829 | 27.48794 | 32199 ft | 461 kts | 207° |
| 2026-05-04 17:37 | -29.07923 | 27.46507 | 32221 ft | 461 kts | 207° |
| 2026-05-04 17:37 | -29.14026 | 27.44203 | 32180 ft | 463 kts | 207° |
| 2026-05-04 17:38 | -29.20151 | 27.41901 | 32162 ft | 464 kts | 207° |
| 2026-05-04 17:38 | -29.26283 | 27.39591 | 32160 ft | 464 kts | 207° |
| 2026-05-04 17:39 | -29.35500 | 27.36104 | 32158 ft | 465 kts | 207° |
| 2026-05-04 17:39 | -29.41647 | 27.33780 | 32153 ft | 466 kts | 207° |
| 2026-05-04 17:40 | -29.47760 | 27.31467 | 32147 ft | 466 kts | 207° |
| 2026-05-04 17:40 | -29.53926 | 27.29132 | 32141 ft | 466 kts | 207° |
| 2026-05-04 17:41 | -29.60089 | 27.26786 | 32142 ft | 467 kts | 207° |
| 2026-05-04 17:41 | -29.66262 | 27.24439 | 32156 ft | 467 kts | 207° |
| 2026-05-04 17:42 | -29.72441 | 27.22087 | 32136 ft | 468 kts | 207° |
| 2026-05-04 17:42 | -29.78626 | 27.19731 | 32132 ft | 468 kts | 207° |
| 2026-05-04 17:43 | -29.84818 | 27.17370 | 32126 ft | 468 kts | 207° |
| 2026-05-04 17:43 | -29.91004 | 27.15008 | 32127 ft | 469 kts | 207° |
| 2026-05-04 17:44 | -29.96163 | 27.13033 | 32133 ft | 470 kts | 208° |
| 2026-05-04 17:44 | -30.02376 | 27.10648 | 32116 ft | 471 kts | 208° |
| 2026-05-04 17:45 | -30.08679 | 27.08224 | 32323 ft | 483 kts | 207° |
| 2026-05-04 17:45 | -30.11872 | 27.06999 | 32591 ft | 484 kts | 208° |
| 2026-05-04 17:45 | -30.15071 | 27.05773 | 32939 ft | 484 kts | 208° |
| 2026-05-04 17:46 | -30.18258 | 27.04547 | 33324 ft | 482 kts | 208° |
| 2026-05-04 17:46 | -30.21440 | 27.03322 | 33720 ft | 481 kts | 208° |
| 2026-05-04 17:46 | -30.24616 | 27.02101 | 34080 ft | 480 kts | 208° |
| 2026-05-04 17:46 | -30.27782 | 27.00882 | 34412 ft | 479 kts | 209° |
| 2026-05-04 17:47 | -30.30943 | 26.99667 | 34737 ft | 478 kts | 209° |
| 2026-05-04 17:47 | -30.34091 | 26.98457 | 35072 ft | 477 kts | 209° |
| 2026-05-04 17:47 | -30.37238 | 26.97243 | 35380 ft | 475 kts | 210° |
| 2026-05-04 17:47 | -30.40370 | 26.96031 | 35680 ft | 474 kts | 210° |
| 2026-05-04 17:48 | -30.43501 | 26.94821 | 35972 ft | 473 kts | 210° |
| 2026-05-04 17:48 | -30.46622 | 26.93612 | 36078 ft | 473 kts | 210° |
| 2026-05-04 17:48 | -30.52875 | 26.91181 | 36079 ft | 474 kts | 210° |
| 2026-05-04 17:49 | -30.59096 | 26.88769 | 36078 ft | 474 kts | 210° |
| 2026-05-04 17:49 | -30.65348 | 26.86351 | 36082 ft | 474 kts | 210° |
| 2026-05-04 17:50 | -30.71614 | 26.83909 | 36072 ft | 475 kts | 210° |
| 2026-05-04 17:50 | -30.77886 | 26.81464 | 36094 ft | 476 kts | 210° |
| 2026-05-04 17:51 | -30.84169 | 26.79019 | 36078 ft | 476 kts | 210° |
| 2026-05-04 17:51 | -30.90454 | 26.76558 | 36072 ft | 477 kts | 210° |
| 2026-05-04 17:52 | -30.96764 | 26.74099 | 36078 ft | 479 kts | 210° |
| 2026-05-04 17:52 | -31.03073 | 26.71640 | 36075 ft | 478 kts | 210° |
| 2026-05-04 17:53 | -31.09381 | 26.69169 | 36070 ft | 477 kts | 210° |
| 2026-05-04 17:53 | -31.15674 | 26.66691 | 36077 ft | 477 kts | 210° |
| 2026-05-04 17:54 | -31.21974 | 26.64212 | 36062 ft | 478 kts | 210° |
| 2026-05-04 17:54 | -31.28270 | 26.61740 | 36059 ft | 478 kts | 210° |
| 2026-05-04 17:55 | -31.34584 | 26.59259 | 36071 ft | 478 kts | 210° |
| 2026-05-04 17:55 | -31.40881 | 26.56768 | 36051 ft | 478 kts | 210° |
| 2026-05-04 17:56 | -31.47184 | 26.54265 | 36031 ft | 478 kts | 210° |
| 2026-05-04 17:56 | -31.53495 | 26.51769 | 36009 ft | 479 kts | 210° |
| 2026-05-04 17:57 | -31.59768 | 26.49293 | 36016 ft | 479 kts | 210° |
| 2026-05-04 17:57 | -31.66087 | 26.46781 | 35989 ft | 480 kts | 210° |
| 2026-05-04 17:58 | -31.72428 | 26.44261 | 35988 ft | 481 kts | 210° |
| 2026-05-04 17:58 | -31.78759 | 26.41742 | 35974 ft | 481 kts | 210° |
| 2026-05-04 17:59 | -31.85100 | 26.39203 | 36003 ft | 482 kts | 210° |
| 2026-05-04 18:00 | -31.94630 | 26.35387 | 35974 ft | 483 kts | 210° |
| 2026-05-04 18:00 | -32.01001 | 26.32832 | 35965 ft | 484 kts | 210° |
| 2026-05-04 18:01 | -32.07388 | 26.30273 | 35953 ft | 484 kts | 210° |
| 2026-05-04 18:01 | -32.13764 | 26.27716 | 35971 ft | 484 kts | 210° |
| 2026-05-04 18:02 | -32.20146 | 26.25146 | 35744 ft | 486 kts | 210° |
| 2026-05-04 18:02 | -32.23354 | 26.23854 | 35495 ft | 487 kts | 210° |
| 2026-05-04 18:02 | -32.26572 | 26.22560 | 34784 ft | 492 kts | 208° |
| 2026-05-04 18:02 | -32.29836 | 26.21245 | 33935 ft | 498 kts | 208° |
| 2026-05-04 18:03 | -32.33116 | 26.19925 | 33365 ft | 496 kts | 207° |
| 2026-05-04 18:03 | -32.36378 | 26.18611 | 32786 ft | 494 kts | 207° |
| 2026-05-04 18:03 | -32.39592 | 26.17316 | 32214 ft | 493 kts | 207° |
| 2026-05-04 18:03 | -32.42831 | 26.16008 | 31694 ft | 490 kts | 207° |
| 2026-05-04 18:04 | -32.46052 | 26.14706 | 31175 ft | 488 kts | 207° |
| 2026-05-04 18:04 | -32.49259 | 26.13407 | 30637 ft | 487 kts | 207° |
| 2026-05-04 18:04 | -32.55647 | 26.10822 | 29531 ft | 482 kts | 207° |
| 2026-05-04 18:05 | -32.58802 | 26.09546 | 29014 ft | 477 kts | 207° |
| 2026-05-04 18:05 | -32.61933 | 26.08277 | 28487 ft | 473 kts | 207° |
| 2026-05-04 18:05 | -32.65029 | 26.07019 | 27976 ft | 468 kts | 207° |
| 2026-05-04 18:05 | -32.68093 | 26.05772 | 27467 ft | 463 kts | 207° |
| 2026-05-04 18:06 | -32.74135 | 26.03312 | 26466 ft | 454 kts | 207° |
| 2026-05-04 18:06 | -32.77110 | 26.02098 | 25984 ft | 450 kts | 207° |
| 2026-05-04 18:06 | -32.80059 | 26.00892 | 25517 ft | 446 kts | 207° |
| 2026-05-04 18:07 | -32.82977 | 25.99699 | 25049 ft | 442 kts | 207° |
| 2026-05-04 18:07 | -32.85832 | 25.98531 | 24590 ft | 438 kts | 207° |
| 2026-05-04 18:07 | -32.88701 | 25.97356 | 24132 ft | 435 kts | 207° |
| 2026-05-04 18:07 | -32.91552 | 25.96192 | 23752 ft | 430 kts | 207° |
| 2026-05-04 18:08 | -32.94385 | 25.95033 | 23211 ft | 430 kts | 207° |
| 2026-05-04 18:08 | -32.97204 | 25.93881 | 22632 ft | 429 kts | 207° |
| 2026-05-04 18:08 | -33.00006 | 25.92737 | 22196 ft | 425 kts | 207° |
| 2026-05-04 18:08 | -33.02798 | 25.91597 | 21805 ft | 420 kts | 206° |
| 2026-05-04 18:09 | -33.08291 | 25.89354 | 20922 ft | 415 kts | 206° |
| 2026-05-04 18:09 | -33.13706 | 25.87131 | 20028 ft | 408 kts | 206° |
| 2026-05-04 18:10 | -33.16383 | 25.86030 | 19592 ft | 405 kts | 206° |
| 2026-05-04 18:10 | -33.19031 | 25.84963 | 19000 ft | 401 kts | 205° |
| 2026-05-04 18:10 | -33.21708 | 25.84030 | 18342 ft | 400 kts | 202° |
| 2026-05-04 18:10 | -33.24400 | 25.83208 | 17632 ft | 397 kts | 201° |
| 2026-05-04 18:11 | -33.27159 | 25.82430 | 16915 ft | 392 kts | 200° |
| 2026-05-04 18:11 | -33.29679 | 25.81732 | 16307 ft | 386 kts | 200° |
| 2026-05-04 18:11 | -33.32274 | 25.80998 | 15674 ft | 380 kts | 201° |
| 2026-05-04 18:11 | -33.34819 | 25.80259 | 15156 ft | 371 kts | 201° |
| 2026-05-04 18:12 | -33.37330 | 25.79513 | 14631 ft | 363 kts | 202° |
| 2026-05-04 18:12 | -33.39722 | 25.78789 | 14138 ft | 357 kts | 202° |
| 2026-05-04 18:12 | -33.42168 | 25.78189 | 13297 ft | 363 kts | 196° |
| 2026-05-04 18:12 | -33.44678 | 25.77754 | 12321 ft | 364 kts | 194° |
| 2026-05-04 18:13 | -33.47156 | 25.77386 | 11885 ft | 349 kts | 193° |
| 2026-05-04 18:13 | -33.49491 | 25.77071 | 11684 ft | 328 kts | 193° |
| 2026-05-04 18:13 | -33.53919 | 25.76458 | 10628 ft | 315 kts | 192° |
| 2026-05-04 18:14 | -33.56080 | 25.76136 | 10080 ft | 311 kts | 192° |
| 2026-05-04 18:14 | -33.58213 | 25.75814 | 9498 ft | 307 kts | 192° |
| 2026-05-04 18:14 | -33.60313 | 25.75492 | 8882 ft | 303 kts | 191° |
| 2026-05-04 18:15 | -33.64464 | 25.75226 | 7824 ft | 297 kts | 166° |
| 2026-05-04 18:15 | -33.67781 | 25.77751 | 7556 ft | 272 kts | 141° |
| 2026-05-04 18:15 | -33.69210 | 25.79187 | 7396 ft | 265 kts | 140° |
| 2026-05-04 18:16 | -33.70614 | 25.80605 | 7154 ft | 262 kts | 140° |
| 2026-05-04 18:16 | -33.72041 | 25.81923 | 6999 ft | 254 kts | 147° |
| 2026-05-04 18:16 | -33.73523 | 25.83015 | 6876 ft | 246 kts | 150° |
| 2026-05-04 18:17 | -33.76428 | 25.85056 | 6399 ft | 240 kts | 150° |
| 2026-05-04 18:17 | -33.77873 | 25.86058 | 6115 ft | 239 kts | 150° |
| 2026-05-04 18:17 | -33.80781 | 25.87885 | 5626 ft | 232 kts | 167° |
| 2026-05-04 18:18 | -33.82379 | 25.87940 | 5281 ft | 231 kts | 194° |
| 2026-05-04 18:18 | -33.83804 | 25.87117 | 5011 ft | 228 kts | 221° |
| 2026-05-04 18:18 | -33.84818 | 25.85678 | 4744 ft | 226 kts | 234° |
| 2026-05-04 18:18 | -33.85724 | 25.84167 | 4453 ft | 225 kts | 233° |
| 2026-05-04 18:19 | -33.87533 | 25.81159 | 3938 ft | 220 kts | 233° |
| 2026-05-04 18:19 | -33.88426 | 25.79674 | 3659 ft | 218 kts | 231° |
| 2026-05-04 18:19 | -33.89323 | 25.78182 | 3384 ft | 216 kts | 231° |
| 2026-05-04 18:20 | -33.90218 | 25.76758 | 3160 ft | 211 kts | 230° |
| 2026-05-04 18:20 | -33.91069 | 25.75392 | 3043 ft | 201 kts | 231° |
| 2026-05-04 18:20 | -33.91862 | 25.74060 | 2968 ft | 192 kts | 232° |
| 2026-05-04 18:20 | -33.92630 | 25.72765 | 2694 ft | 188 kts | 232° |
| 2026-05-04 18:21 | -33.93376 | 25.71502 | 2461 ft | 180 kts | 233° |
| 2026-05-04 18:21 | -33.94056 | 25.70290 | 2161 ft | 170 kts | 235° |
| 2026-05-04 18:21 | -33.94706 | 25.69115 | 1788 ft | 167 kts | 235° |
| 2026-05-04 18:21 | -33.95267 | 25.67962 | 1553 ft | 151 kts | 239° |
| 2026-05-04 18:22 | -33.95791 | 25.66916 | 1249 ft | 140 kts | 237° |
| 2026-05-04 18:22 | -33.96313 | 25.65963 | 1085 ft | 135 kts | 237° |
| 2026-05-04 18:22 | -33.96808 | 25.65011 | 902 ft | 133 kts | 238° |
| 2026-05-04 18:22 | -33.97288 | 25.64065 | 672 ft | 131 kts | 236° |
| 2026-05-04 18:23 | -33.97776 | 25.63121 | 455 ft | 136 kts | 238° |
| 2026-05-04 18:23 | -33.98268 | 25.62171 | 309 ft | 135 kts | 237° |
| 2026-05-04 18:23 | -33.98752 | 25.61246 | 221 ft | 118 kts | 244° |
| 2026-05-04 18:23 | -33.99062 | 25.60627 | 210 ft | 45 kts | 238° |
| 2026-05-04 18:24 | -33.99171 | 25.60418 | 211 ft | 27 kts | 238° |
| 2026-05-04 18:24 | -33.99266 | 25.60234 | 214 ft | 25 kts | 244° |
| 2026-05-04 18:24 | -33.99319 | 25.60122 | 210 ft | 14 kts | 228° |
| 2026-05-04 18:24 | -33.99361 | 25.60017 | 212 ft | 14 kts | 282° |
| 2026-05-04 18:25 | -33.99278 | 25.59937 | 213 ft | 19 kts | 329° |
| 2026-05-04 18:25 | -33.99184 | 25.59991 | 213 ft | 17 kts | 54° |
| 2026-05-04 18:25 | -33.99099 | 25.60140 | 215 ft | 24 kts | 57° |
| 2026-05-04 18:25 | -33.99005 | 25.60316 | 216 ft | 26 kts | 57° |
| 2026-05-04 18:26 | -33.98905 | 25.60502 | 212 ft | 27 kts | 57° |
| 2026-05-04 18:26 | -33.98799 | 25.60699 | 215 ft | 29 kts | 59° |
| 2026-05-04 18:26 | -33.98686 | 25.60907 | 212 ft | 30 kts | 57° |
| 2026-05-04 18:26 | -33.98585 | 25.61102 | 215 ft | 23 kts | 60° |
| 2026-05-04 18:27 | -33.98540 | 25.61172 | 212 ft | 6 kts | 1° |
| 2026-05-04 18:27 | -33.98512 | 25.61153 | 216 ft | 2 kts | 329° |
| 2026-05-04 18:27 | -33.98496 | 25.61141 | 214 ft | 2 kts | 327° |
| 2026-05-04 18:27 | -33.98496 | 25.61140 | 214 ft | 0 kts | 327° |